Overview Statistics Trail Chart Weather Telemetry Raw packets
 

This is the latest recevied weather packets stored in our database for station/object K1BES. If no packets are shown the sender has not sent any weather packets the latest 10 day(s).

<< 51 52 53 54 55 56 57 >>
Time Temp. Humidity Pressure Rain* Wind** Luminosity Snow
1788298644 25.56° C 94% 1017.5 hPa 1.27 mm - 75 W/m² -
1788298344 25° C 94% 1017.3 hPa 3.05 mm - 77 W/m² -
1788298044 25° C 93% 1017.3 hPa 4.83 mm - 79 W/m² -
1788297740 25.56° C 92% 1017.2 hPa 7.11 mm - 76 W/m² -
1788297440 25.56° C 91% 1017.5 hPa 10.16 mm - 68 W/m² -
1788297136 26.11° C 91% 1017.7 hPa 9.65 mm - 69 W/m² -
1788296832 26.11° C 91% 1017.5 hPa 4.83 mm - 92 W/m² -
1788296527 26.67° C 89% 1017.5 hPa 1.27 mm - 135 W/m² -
1788296223 26.67° C 89% 1017.5 hPa 0 mm - 188 W/m² -
1788295918 26.67° C 89% 1017.4 hPa 0 mm - 212 W/m² -
1788295613 27.22° C 88% 1016.9 hPa 0 mm - 239 W/m² -
1788295309 27.22° C 86% 1017 hPa 0 mm - 202 W/m² -
1788295009 28.33° C 83% 1016.8 hPa 0 mm - 162 W/m² -
1788294704 31.11° C 74% 1016.6 hPa 0 mm - 152 W/m² -
1788294403 32.22° C 72% 1016.3 hPa 0 mm - 242 W/m² -
1788294099 32.22° C 72% 1016.1 hPa 0 mm - 188 W/m² -
1788293795 32.22° C 71% 1016.2 hPa 0 mm - 109 W/m² -
1788293494 32.78° C 70% 1016.2 hPa 0 mm - 587 W/m² -
1788293194 32.22° C 72% 1016.4 hPa 0 mm - 752 W/m² -
1788292889 32.22° C 70% 1016.4 hPa 0 mm - 761 W/m² -
1788292587 32.22° C 71% 1016.3 hPa 0 mm - 772 W/m² -
1788292286 32.78° C 70% 1016.4 hPa 0 mm - 785 W/m² -
1788291982 32.78° C 71% 1016.5 hPa 0 mm - 801 W/m² -
1788291677 32.78° C 71% 1016.6 hPa 0 mm - 815 W/m² -
1788291373 32.78° C 70% 1016.7 hPa 0 mm - 845 W/m² -

* Rain latest hour (hover to see other rain measurements)
** Current wind speed in m/s (hover to see current wind gust speed)